Time;durP1;ratioP1;P1;durP2;ratioP2;P2;SDS_P1;SDS_P2;PMS_P1;PMS_P2;Temp;Humidity;BMP_temperature;BMP_pressure;BME280_temperature;BME280_humidity;BME280_pressure;Samples;Min_cycle;Max_cycle;Signal;HPM_P1;HPM_P2
2023/12/06 00:00:36;;;;;;;982.08;892.88;;;0.30;99.90;;;;;;6306295;22;20072;-84
2023/12/06 00:03:03;;;;;;;1032.07;934.38;;;0.60;99.90;;;;;;6306197;22;20343;-84
2023/12/06 00:05:29;;;;;;;998.97;905.95;;;0.30;99.90;;;;;;6304694;22;20398;-84
2023/12/06 00:07:55;;;;;;;1016.78;923.42;;;1.30;99.90;;;;;;6280786;22;20375;-84
2023/12/06 00:10:21;;;;;;;985.35;895.25;;;0.60;99.90;;;;;;6306399;22;20026;-85
2023/12/06 00:12:46;;;;;;;997.72;905.38;;;-0.20;99.90;;;;;;6304025;22;20018;-84
2023/12/06 00:15:12;;;;;;;1000.20;908.28;;;1.30;99.90;;;;;;6306368;22;20015;-84
2023/12/06 00:17:38;;;;;;;1044.15;944.42;;;0.30;99.90;;;;;;6279636;22;20018;-84
2023/12/06 00:20:05;;;;;;;1019.83;924.05;;;0.70;99.90;;;;;;6305187;22;20094;-84
2023/12/06 00:22:31;;;;;;;1018.20;922.45;;;0.30;99.90;;;;;;6305465;22;20019;-85
2023/12/06 00:24:57;;;;;;;1015.95;919.20;;;0.60;99.90;;;;;;6306288;22;20026;-84
2023/12/06 00:27:23;;;;;;;1034.57;936.63;;;1.60;99.90;;;;;;6304740;22;20011;-84
2023/12/06 00:29:49;;;;;;;1054.35;952.13;;;0.80;99.90;;;;;;6304623;22;20030;-84
2023/12/06 00:32:14;;;;;;;995.63;903.08;;;0.40;99.90;;;;;;6333903;22;20549;-84
2023/12/06 00:34:40;;;;;;;996.72;904.33;;;1.10;99.90;;;;;;6304451;22;20438;-84
2023/12/06 00:37:06;;;;;;;1016.63;922.00;;;0.40;99.90;;;;;;6306147;22;20427;-84
2023/12/06 00:39:31;;;;;;;1046.25;946.67;;;1.30;99.90;;;;;;6305986;22;20331;-84
2023/12/06 00:41:57;;;;;;;1004.95;910.90;;;1.10;99.90;;;;;;6304829;22;20113;-84
2023/12/06 00:44:23;;;;;;;1033.72;934.92;;;0.80;99.90;;;;;;6279095;22;20029;-84
2023/12/06 00:46:49;;;;;;;1018.30;922.78;;;0.40;99.90;;;;;;6306090;22;20439;-84
2023/12/06 00:49:18;;;;;;;1011.92;916.38;;;0.80;99.90;;;;;;6332776;22;20078;-84
2023/12/06 00:51:43;;;;;;;1012.45;916.60;;;0.40;99.90;;;;;;6279776;22;20065;-84
2023/12/06 00:54:09;;;;;;;1040.88;939.97;;;1.60;99.90;;;;;;6304235;22;20011;-84
2023/12/06 00:56:35;;;;;;;1035.35;938.35;;;0.90;99.90;;;;;;6300496;22;20027;-84
2023/12/06 00:59:00;;;;;;;1076.55;969.72;;;1.40;99.90;;;;;;6298992;22;20023;-84
2023/12/06 01:01:26;;;;;;;1027.25;929.70;;;0.60;99.90;;;;;;6299421;22;20023;-84
2023/12/06 01:03:52;;;;;;;1045.85;943.60;;;1.10;99.90;;;;;;6300701;22;20011;-84
2023/12/06 01:06:18;;;;;;;1051.55;949.33;;;1.40;99.90;;;;;;6300041;22;20050;-84
2023/12/06 01:08:44;;;;;;;1018.75;923.35;;;1.30;99.90;;;;;;6299515;22;20070;-84
2023/12/06 01:11:09;;;;;;;1007.08;911.08;;;0.70;99.90;;;;;;6299895;22;20324;-84
2023/12/06 01:13:35;;;;;;;1033.18;933.83;;;1.10;99.90;;;;;;6299162;22;20382;-84
2023/12/06 01:16:01;;;;;;;1043.28;942.90;;;0.70;99.90;;;;;;6299717;22;20011;-84
2023/12/06 01:18:27;;;;;;;1032.78;931.72;;;0.90;99.90;;;;;;6299360;22;20672;-84
2023/12/06 01:20:52;;;;;;;1040.43;940.15;;;0.90;99.90;;;;;;6274576;22;20011;-84
2023/12/06 01:23:19;;;;;;;1031.85;932.95;;;1.40;99.90;;;;;;6299543;22;20050;-84
2023/12/06 01:25:45;;;;;;;1020.83;921.78;;;0.40;99.90;;;;;;6300041;22;20367;-84
2023/12/06 01:28:11;;;;;;;1065.18;960.72;;;0.60;99.90;;;;;;6299073;22;20352;-84
2023/12/06 01:30:36;;;;;;;1024.60;924.65;;;1.30;99.90;;;;;;6298538;22;20016;-84
2023/12/06 01:33:02;;;;;;;1043.38;942.63;;;1.40;99.90;;;;;;6274501;22;20055;-84
2023/12/06 01:35:28;;;;;;;1028.32;929.50;;;0.40;99.90;;;;;;6299747;22;20447;-84
2023/12/06 01:37:56;;;;;;;1041.72;941.72;;;1.40;99.90;;;;;;6273832;22;20025;-84
2023/12/06 01:40:21;;;;;;;1072.38;962.95;;;1.20;99.90;;;;;;6300404;22;20025;-84
2023/12/06 01:42:47;;;;;;;1028.43;929.65;;;1.00;99.90;;;;;;6298629;22;20086;-84
2023/12/06 01:45:13;;;;;;;1052.40;948.80;;;1.10;99.90;;;;;;6299474;22;20029;-84
2023/12/06 01:47:41;;;;;;;1069.38;962.25;;;0.40;99.90;;;;;;6299437;22;20446;-84
2023/12/06 01:50:08;;;;;;;1096.68;984.00;;;0.70;99.90;;;;;;6300381;22;20023;-85
2023/12/06 01:52:35;;;;;;;1078.57;968.38;;;0.50;99.90;;;;;;6298064;22;20152;-84
2023/12/06 01:55:03;;;;;;;1032.10;931.95;;;0.90;99.90;;;;;;6302583;22;20072;-84
2023/12/06 01:57:29;;;;;;;1053.80;951.38;;;0.40;99.90;;;;;;6302986;22;20065;-84
2023/12/06 01:59:56;;;;;;;1057.53;955.03;;;1.50;99.90;;;;;;6304710;22;20454;-84
2023/12/06 02:02:23;;;;;;;1047.25;944.47;;;1.40;99.90;;;;;;6305112;22;20015;-84
2023/12/06 02:04:48;;;;;;;1070.68;962.30;;;1.60;99.90;;;;;;6303688;22;20334;-84
2023/12/06 02:07:16;;;;;;;1049.18;948.45;;;1.70;99.90;;;;;;6305227;22;20094;-84
2023/12/06 02:09:42;;;;;;;1035.97;937.42;;;0.80;99.90;;;;;;6304456;22;20050;-84
2023/12/06 02:12:07;;;;;;;1044.20;944.22;;;0.50;99.90;;;;;;6304063;22;20154;-84
2023/12/06 02:14:35;;;;;;;1037.95;937.90;;;0.50;99.90;;;;;;6304045;22;20061;-84
2023/12/06 02:17:02;;;;;;;1021.20;926.08;;;1.30;99.90;;;;;;6305414;22;20019;-84
2023/12/06 02:19:28;;;;;;;1039.07;938.45;;;0.50;99.90;;;;;;6303814;22;20018;-84
2023/12/06 02:21:55;;;;;;;1046.07;946.35;;;1.50;99.90;;;;;;6278872;22;20054;-84
2023/12/06 02:24:25;;;;;;;1053.70;949.90;;;1.00;99.90;;;;;;6305383;22;20037;-84
2023/12/06 02:26:52;;;;;;;1037.82;939.80;;;1.60;99.90;;;;;;6303788;22;20022;-84
2023/12/06 02:29:18;;;;;;;1061.57;957.45;;;0.90;99.90;;;;;;6304276;22;20090;-84
2023/12/06 02:31:44;;;;;;;1044.97;943.20;;;0.90;99.90;;;;;;6304326;22;20015;-84
2023/12/06 02:34:14;;;;;;;1040.85;941.65;;;1.30;99.90;;;;;;6304014;22;20442;-85
2023/12/06 02:36:42;;;;;;;1015.55;920.97;;;0.70;99.90;;;;;;6279014;22;20022;-85
2023/12/06 02:39:09;;;;;;;1070.88;963.72;;;1.40;99.90;;;;;;6305136;22;20019;-85
2023/12/06 02:41:35;;;;;;;1053.13;952.80;;;1.60;99.90;;;;;;6305824;22;20469;-85
2023/12/06 02:44:01;;;;;;;1032.75;935.08;;;1.70;99.90;;;;;;6305346;22;20019;-85
2023/12/06 02:46:27;;;;;;;1048.20;947.70;;;1.70;99.90;;;;;;6306860;22;20030;-85
2023/12/06 02:48:53;;;;;;;1027.00;929.50;;;0.90;99.90;;;;;;6306099;22;20015;-85
2023/12/06 02:51:22;;;;;;;1025.35;927.78;;;1.20;99.90;;;;;;6307208;22;20110;-85
2023/12/06 02:53:48;;;;;;;1036.38;938.05;;;0.70;99.90;;;;;;6305190;22;20520;-85
2023/12/06 02:56:14;;;;;;;1072.80;968.00;;;0.90;99.90;;;;;;6301686;22;20038;-85
2023/12/06 02:58:40;;;;;;;1031.25;935.33;;;1.50;99.90;;;;;;6300496;22;20440;-85
2023/12/06 03:01:06;;;;;;;1074.22;968.55;;;1.00;99.90;;;;;;6300622;22;20341;-85
2023/12/06 03:03:31;;;;;;;1077.45;970.40;;;0.60;99.90;;;;;;6301215;22;20015;-85
2023/12/06 03:05:57;;;;;;;1059.38;954.50;;;0.70;99.90;;;;;;6301495;22;20015;-85
2023/12/06 03:08:23;;;;;;;1040.47;942.78;;;1.80;99.90;;;;;;6300523;22;20130;-85
2023/12/06 03:10:49;;;;;;;1031.40;934.30;;;0.70;99.90;;;;;;6301346;22;20019;-85
2023/12/06 03:13:14;;;;;;;1070.28;966.28;;;0.60;99.90;;;;;;6300112;22;20015;-85
2023/12/06 03:15:40;;;;;;;1047.20;945.83;;;1.90;99.90;;;;;;6300727;22;20098;-85
2023/12/06 03:18:06;;;;;;;1055.07;951.55;;;0.80;99.90;;;;;;6275369;22;20015;-85
2023/12/06 03:20:33;;;;;;;1036.65;939.25;;;1.30;99.90;;;;;;6275601;22;20011;-86
2023/12/06 03:23:00;;;;;;;1058.28;958.15;;;1.90;99.90;;;;;;6300565;22;20011;-85
2023/12/06 03:25:25;;;;;;;1045.53;947.47;;;1.20;99.90;;;;;;6300850;22;20076;-85
2023/12/06 03:27:51;;;;;;;1051.85;950.40;;;0.70;99.90;;;;;;6300424;22;20016;-85
2023/12/06 03:30:17;;;;;;;1049.97;949.03;;;0.70;99.90;;;;;;6274567;22;20339;-85
2023/12/06 03:32:43;;;;;;;1047.90;949.28;;;1.90;99.90;;;;;;6274947;22;20046;-86
2023/12/06 03:35:09;;;;;;;1039.60;939.78;;;1.00;99.90;;;;;;6275999;22;20015;-85
2023/12/06 03:37:35;;;;;;;1041.75;941.00;;;1.10;99.90;;;;;;6299613;22;20080;-85
2023/12/06 03:40:00;;;;;;;1030.07;932.38;;;1.40;99.90;;;;;;6301902;22;20187;-86
2023/12/06 03:42:26;;;;;;;1044.68;945.70;;;1.30;99.90;;;;;;6274304;22;20019;-86
2023/12/06 03:44:52;;;;;;;1066.57;964.05;;;1.00;99.90;;;;;;6274343;22;20008;-86
2023/12/06 03:47:17;;;;;;;1086.30;979.47;;;1.00;99.90;;;;;;6301323;22;20046;-85
2023/12/06 03:49:43;;;;;;;1041.57;943.30;;;2.00;99.90;;;;;;6300530;22;20382;-85
2023/12/06 03:52:09;;;;;;;1052.78;952.05;;;0.80;99.90;;;;;;6300199;22;20023;-85
2023/12/06 03:54:35;;;;;;;1084.18;977.95;;;1.50;99.90;;;;;;6300284;22;20076;-85
2023/12/06 03:57:01;;;;;;;1071.45;967.85;;;1.20;99.90;;;;;;6300485;22;20019;-85
2023/12/06 03:59:27;;;;;;;1047.45;947.53;;;1.90;99.90;;;;;;6299816;22;20022;-85
2023/12/06 04:01:53;;;;;;;1058.18;958.70;;;1.00;99.90;;;;;;6275227;22;20016;-85
2023/12/06 04:04:19;;;;;;;1045.90;947.38;;;1.20;99.90;;;;;;6274422;22;20118;-85
2023/12/06 04:06:45;;;;;;;1042.60;946.20;;;1.80;99.90;;;;;;6300343;22;20019;-85
2023/12/06 04:09:11;;;;;;;1060.95;957.75;;;1.40;99.90;;;;;;6275111;22;20080;-85
2023/12/06 04:11:37;;;;;;;1045.45;947.17;;;1.30;99.90;;;;;;6300045;22;20019;-85
2023/12/06 04:14:03;;;;;;;1082.88;975.30;;;1.40;99.90;;;;;;6299450;22;20015;-85
2023/12/06 04:16:30;;;;;;;1094.25;986.35;;;1.30;99.90;;;;;;6301079;22;20415;-85
2023/12/06 04:18:56;;;;;;;1057.05;955.75;;;0.90;99.90;;;;;;6299470;22;20356;-85
2023/12/06 04:21:22;;;;;;;1061.80;959.67;;;1.10;99.90;;;;;;6301129;22;20034;-85
2023/12/06 04:23:48;;;;;;;1049.90;947.97;;;0.80;99.90;;;;;;6300530;22;20455;-85
2023/12/06 04:26:14;;;;;;;1055.55;952.63;;;0.80;99.90;;;;;;6299944;22;20023;-85
2023/12/06 04:28:40;;;;;;;1049.78;950.55;;;1.00;99.90;;;;;;6299490;22;20096;-85
2023/12/06 04:31:06;;;;;;;1071.97;968.65;;;1.40;99.90;;;;;;6300423;22;20019;-84
2023/12/06 04:33:32;;;;;;;1040.70;942.22;;;1.40;99.90;;;;;;6299640;22;20447;-85
2023/12/06 04:35:57;;;;;;;1064.93;962.05;;;0.90;99.90;;;;;;6300814;22;20539;-84
2023/12/06 04:38:23;;;;;;;1059.40;957.20;;;1.30;99.90;;;;;;6274657;22;20011;-85
2023/12/06 04:40:49;;;;;;;1052.10;952.15;;;0.90;99.90;;;;;;6299985;22;20027;-85
2023/12/06 04:43:17;;;;;;;1046.22;945.95;;;1.90;99.90;;;;;;6299136;22;20086;-85
2023/12/06 04:45:42;;;;;;;1071.53;966.45;;;0.90;99.90;;;;;;6300743;22;20406;-84
2023/12/06 04:48:08;;;;;;;1086.60;979.65;;;1.00;99.90;;;;;;6299331;22;20011;-84
2023/12/06 04:50:34;;;;;;;1072.53;967.88;;;0.90;99.90;;;;;;6300605;22;20015;-84
2023/12/06 04:53:00;;;;;;;1091.75;980.50;;;1.20;99.90;;;;;;6300157;22;20107;-84
2023/12/06 04:55:25;;;;;;;1056.65;954.25;;;1.70;99.90;;;;;;6299384;22;20014;-84
2023/12/06 04:57:51;;;;;;;1058.78;958.58;;;1.00;99.90;;;;;;6273854;22;20103;-84
2023/12/06 05:00:17;;;;;;;1070.75;967.47;;;2.00;99.90;;;;;;6299716;22;20019;-84
2023/12/06 05:02:43;;;;;;;1061.38;958.47;;;1.00;99.90;;;;;;6299551;22;20028;-84
2023/12/06 05:05:10;;;;;;;1076.28;971.17;;;1.30;99.90;;;;;;6300866;22;20015;-85
2023/12/06 05:07:35;;;;;;;1067.72;964.55;;;1.50;99.90;;;;;;6298809;22;20768;-84
2023/12/06 05:10:01;;;;;;;1071.53;968.30;;;1.70;99.90;;;;;;6302675;22;20102;-84
2023/12/06 05:12:27;;;;;;;1022.88;924.72;;;1.00;99.90;;;;;;6299533;22;20542;-84
2023/12/06 05:14:53;;;;;;;1093.65;981.35;;;1.60;99.90;;;;;;6273592;22;20046;-84
2023/12/06 05:17:18;;;;;;;1085.13;980.13;;;1.90;99.90;;;;;;6300392;22;20058;-84
2023/12/06 05:19:44;;;;;;;1040.90;942.45;;;1.30;99.90;;;;;;6273956;22;20030;-84
2023/12/06 05:22:10;;;;;;;1043.15;945.25;;;1.30;99.90;;;;;;6299160;22;20431;-84
2023/12/06 05:24:36;;;;;;;1054.13;950.15;;;1.00;99.90;;;;;;6299919;22;20015;-84
2023/12/06 05:27:01;;;;;;;1044.55;944.75;;;1.00;99.90;;;;;;6300260;22;20019;-84
2023/12/06 05:29:27;;;;;;;1061.32;959.70;;;1.00;99.90;;;;;;6297870;22;20057;-85
2023/12/06 05:31:53;;;;;;;1092.95;983.47;;;1.00;99.90;;;;;;6274335;22;20361;-84
2023/12/06 05:34:19;;;;;;;1052.32;952.33;;;1.10;99.90;;;;;;6299974;22;20058;-84
2023/12/06 05:36:44;;;;;;;1092.57;985.38;;;1.10;99.90;;;;;;6298999;22;20473;-84
2023/12/06 05:39:10;;;;;;;1050.15;951.78;;;1.00;99.90;;;;;;6299699;22;20007;-84
2023/12/06 05:41:36;;;;;;;1064.30;962.70;;;1.70;99.90;;;;;;6299923;22;20019;-83
2023/12/06 05:44:05;;;;;;;1077.80;970.80;;;2.10;99.90;;;;;;6297864;22;20015;-83
2023/12/06 05:46:31;;;;;;;1053.43;954.10;;;0.90;99.90;;;;;;6299890;22;20104;-83
2023/12/06 05:48:56;;;;;;;1087.50;979.90;;;1.00;99.90;;;;;;6299734;22;20015;-83
2023/12/06 05:51:22;;;;;;;1070.72;963.28;;;1.90;99.90;;;;;;6299212;22;20030;-83
2023/12/06 05:53:49;;;;;;;1051.10;949.53;;;1.60;99.90;;;;;;6299772;22;20090;-83
2023/12/06 05:56:14;;;;;;;1059.00;955.60;;;1.50;99.90;;;;;;6273116;22;20533;-84
2023/12/06 05:58:41;;;;;;;1068.20;966.47;;;1.70;99.90;;;;;;6297503;22;20019;-84
2023/12/06 06:01:07;;;;;;;1070.82;966.00;;;1.00;99.90;;;;;;6299581;22;20019;-84
2023/12/06 06:03:34;;;;;;;1068.38;967.08;;;1.50;99.90;;;;;;6272876;22;20031;-84
2023/12/06 06:06:06;;;;;;;1042.47;942.55;;;1.10;99.90;;;;;;6299998;22;20019;-83
2023/12/06 06:08:32;;;;;;;1064.07;960.75;;;1.00;99.90;;;;;;6273727;22;20022;-83
2023/12/06 06:10:58;;;;;;;1074.97;970.00;;;1.90;99.90;;;;;;6298970;22;20027;-84
2023/12/06 06:13:28;;;;;;;1089.57;979.42;;;1.10;99.90;;;;;;6298027;22;20339;-84
2023/12/06 06:15:54;;;;;;;1047.25;947.97;;;1.10;99.90;;;;;;6302666;22;20022;-83
2023/12/06 06:18:20;;;;;;;1081.05;975.55;;;1.70;99.90;;;;;;6302859;22;20015;-83
2023/12/06 06:20:46;;;;;;;1067.68;961.22;;;1.30;99.90;;;;;;6302280;22;20037;-84
2023/12/06 06:23:12;;;;;;;1059.40;958.10;;;1.20;99.90;;;;;;6276031;22;20019;-83
2023/12/06 06:25:37;;;;;;;1084.63;976.60;;;1.40;99.90;;;;;;6300992;22;20050;-83
2023/12/06 06:28:03;;;;;;;1044.63;947.75;;;1.20;99.90;;;;;;6300945;22;20038;-83
2023/12/06 06:30:29;;;;;;;1038.07;940.45;;;1.20;99.90;;;;;;6301130;22;20088;-83
2023/12/06 06:32:55;;;;;;;1059.22;957.60;;;1.60;99.90;;;;;;6299343;22;20403;-83
2023/12/06 06:35:20;;;;;;;1076.50;969.67;;;1.10;99.90;;;;;;6301518;22;20086;-84
2023/12/06 06:37:46;;;;;;;1099.53;989.92;;;1.50;99.90;;;;;;6301608;22;20102;-84
2023/12/06 06:40:12;;;;;;;1073.57;966.30;;;2.10;99.90;;;;;;6301347;22;20339;-83
2023/12/06 06:42:38;;;;;;;1059.10;956.67;;;1.10;99.90;;;;;;6303026;22;20348;-83
2023/12/06 06:45:05;;;;;;;1030.88;934.10;;;1.20;99.90;;;;;;6276325;22;20019;-83
2023/12/06 06:47:31;;;;;;;1024.32;929.28;;;1.20;99.90;;;;;;6300326;22;20057;-84
2023/12/06 06:49:56;;;;;;;1070.63;964.33;;;1.90;99.90;;;;;;6301732;22;20796;-83
2023/12/06 06:52:22;;;;;;;1062.25;962.38;;;1.40;99.90;;;;;;6304122;22;20090;-83
2023/12/06 06:54:48;;;;;;;1036.28;942.47;;;1.50;99.90;;;;;;6301709;22;20022;-84
2023/12/06 06:57:14;;;;;;;959.38;875.22;;;1.80;99.90;;;;;;6302581;22;20110;-84
2023/12/06 06:59:39;;;;;;;994.00;906.17;;;1.90;99.90;;;;;;6302035;22;20019;-84
2023/12/06 07:02:05;;;;;;;957.92;875.47;;;1.50;99.90;;;;;;6304381;22;20041;-83
2023/12/06 07:04:31;;;;;;;922.53;843.13;;;2.20;99.90;;;;;;6302535;22;20393;-84
2023/12/06 07:06:57;;;;;;;958.70;874.90;;;1.40;99.90;;;;;;6301603;22;20106;-84
2023/12/06 07:09:24;;;;;;;1072.75;969.15;;;1.50;99.90;;;;;;6302799;22;20066;-84
2023/12/06 07:11:49;;;;;;;1052.90;953.38;;;1.90;99.90;;;;;;6301348;22;20479;-84
2023/12/06 07:14:15;;;;;;;1019.83;925.60;;;1.30;99.90;;;;;;6275652;22;20053;-85
2023/12/06 07:16:41;;;;;;;1026.10;930.28;;;1.70;99.90;;;;;;6302564;22;20011;-84
2023/12/06 07:19:06;;;;;;;1031.40;933.97;;;1.30;99.90;;;;;;6302416;22;20064;-84
2023/12/06 07:21:32;;;;;;;983.00;895.30;;;1.40;99.90;;;;;;6301957;22;20023;-84
2023/12/06 07:23:58;;;;;;;934.25;854.67;;;2.30;99.90;;;;;;6302686;22;20034;-85
2023/12/06 07:26:23;;;;;;;851.88;783.40;;;1.40;99.90;;;;;;6301464;22;20023;-84
2023/12/06 07:28:50;;;;;;;835.22;768.80;;;2.10;99.90;;;;;;6299313;22;20020;-84
2023/12/06 07:31:16;;;;;;;842.63;776.17;;;1.40;99.90;;;;;;6301080;22;20023;-84
2023/12/06 07:33:42;;;;;;;832.15;765.88;;;1.50;99.90;;;;;;6300997;22;20454;-84
2023/12/06 07:36:10;;;;;;;856.53;789.20;;;1.40;99.90;;;;;;6299849;22;20051;-84
2023/12/06 07:38:36;;;;;;;818.15;754.45;;;1.40;99.90;;;;;;6301071;22;20320;-84
2023/12/06 07:41:02;;;;;;;827.03;762.15;;;1.40;99.90;;;;;;6301468;22;20012;-84
2023/12/06 07:43:28;;;;;;;982.85;895.88;;;1.40;99.90;;;;;;6299179;22;20134;-84
2023/12/06 07:45:54;;;;;;;844.88;778.45;;;1.40;99.90;;;;;;6301353;22;20098;-84
2023/12/06 07:48:19;;;;;;;1012.78;919.78;;;1.40;99.90;;;;;;6300838;22;20102;-84
2023/12/06 07:50:45;;;;;;;916.85;840.08;;;1.40;99.90;;;;;;6300234;22;20182;-84
2023/12/06 07:53:12;;;;;;;919.40;842.30;;;1.40;99.90;;;;;;6301032;22;20047;-84
2023/12/06 07:55:39;;;;;;;872.50;801.67;;;1.40;99.90;;;;;;6301017;22;20018;-84
2023/12/06 07:58:05;;;;;;;914.72;838.50;;;1.60;99.90;;;;;;6301161;22;20019;-84
2023/12/06 08:00:31;;;;;;;853.03;784.17;;;2.30;99.90;;;;;;6274951;22;20012;-84
2023/12/06 08:02:56;;;;;;;887.92;815.65;;;1.50;99.90;;;;;;6301288;22;20081;-84
2023/12/06 08:05:23;;;;;;;807.30;745.17;;;1.50;99.90;;;;;;6302362;22;20023;-83
2023/12/06 08:07:49;;;;;;;816.78;752.40;;;1.90;99.90;;;;;;6301498;22;20011;-84
2023/12/06 08:10:22;;;;;;;828.65;763.17;;;2.40;99.90;;;;;;6300380;22;20019;-83
2023/12/06 08:12:48;;;;;;;825.55;760.45;;;1.50;99.90;;;;;;6299637;22;20100;-83
2023/12/06 08:15:14;;;;;;;961.28;878.67;;;1.50;99.90;;;;;;6301120;22;20022;-83
2023/12/06 08:17:41;;;;;;;877.28;805.53;;;1.50;99.90;;;;;;6299330;22;20027;-84
2023/12/06 08:20:09;;;;;;;841.90;774.70;;;2.00;99.90;;;;;;6300810;22;20406;-83
2023/12/06 08:22:35;;;;;;;883.88;810.85;;;1.50;99.90;;;;;;6300021;22;20064;-84
2023/12/06 08:25:01;;;;;;;814.50;751.92;;;1.90;99.90;;;;;;6300187;22;20015;-84
2023/12/06 08:27:29;;;;;;;976.08;890.65;;;2.10;99.90;;;;;;6299187;22;20138;-84
2023/12/06 08:29:55;;;;;;;895.28;822.65;;;1.60;99.90;;;;;;6299506;22;20017;-84
2023/12/06 08:32:21;;;;;;;935.95;855.90;;;1.70;99.90;;;;;;6273625;22;20034;-83
2023/12/06 08:34:48;;;;;;;978.63;890.85;;;1.70;99.90;;;;;;6300333;22;20015;-83
2023/12/06 08:37:13;;;;;;;994.78;904.72;;;2.20;99.90;;;;;;6299960;22;20033;-84
2023/12/06 08:39:39;;;;;;;1011.05;917.72;;;1.80;99.90;;;;;;6273244;22;20094;-81
2023/12/06 08:42:06;;;;;;;963.33;880.45;;;1.80;99.90;;;;;;6300338;22;20064;-82
2023/12/06 08:44:32;;;;;;;891.00;817.22;;;1.80;99.90;;;;;;6298749;22;20011;-81
2023/12/06 08:46:58;;;;;;;890.53;818.42;;;2.60;99.90;;;;;;6301665;22;20035;-81
2023/12/06 08:49:24;;;;;;;959.75;876.53;;;1.90;99.90;;;;;;6300323;22;20439;-82
2023/12/06 08:51:49;;;;;;;787.53;727.40;;;1.90;99.90;;;;;;6299688;22;20448;-81
2023/12/06 08:54:15;;;;;;;1014.30;920.78;;;2.80;99.90;;;;;;6298854;22;20481;-82
2023/12/06 08:56:42;;;;;;;971.95;887.15;;;1.90;99.90;;;;;;6299023;22;20062;-83
2023/12/06 08:59:07;;;;;;;902.45;828.00;;;2.20;99.90;;;;;;6299279;22;20015;-83
2023/12/06 09:01:33;;;;;;;813.55;749.95;;;1.90;99.90;;;;;;6299382;22;20026;-82
2023/12/06 09:03:59;;;;;;;898.65;823.15;;;2.10;99.90;;;;;;6299654;22;20340;-83
2023/12/06 09:06:25;;;;;;;900.03;826.17;;;1.90;99.90;;;;;;6273119;22;20015;-82
2023/12/06 09:08:51;;;;;;;802.90;740.63;;;1.90;99.90;;;;;;6300385;22;20069;-83
2023/12/06 09:11:20;;;;;;;817.10;754.22;;;2.50;99.90;;;;;;6299655;22;20011;-84
2023/12/06 09:13:46;;;;;;;912.08;834.33;;;1.90;99.90;;;;;;6297667;22;20077;-83
2023/12/06 09:16:13;;;;;;;878.13;806.88;;;2.30;99.90;;;;;;6300051;22;20397;-82
2023/12/06 09:18:38;;;;;;;943.63;862.83;;;2.00;99.90;;;;;;6300298;22;20019;-85
2023/12/06 09:21:05;;;;;;;800.17;737.90;;;1.90;99.90;;;;;;6272693;22;20022;-83
2023/12/06 09:23:31;;;;;;;826.63;762.13;;;1.90;99.90;;;;;;6301118;22;20106;-83
2023/12/06 09:25:59;;;;;;;929.70;851.65;;;2.00;99.90;;;;;;6299423;22;20102;-83
2023/12/06 09:28:25;;;;;;;790.13;729.85;;;1.90;99.90;;;;;;6298177;22;20031;-83
2023/12/06 09:30:51;;;;;;;722.78;668.47;;;2.00;99.90;;;;;;6300188;22;20043;-83
2023/12/06 09:33:19;;;;;;;782.53;723.08;;;1.90;99.90;;;;;;6299769;22;20068;-83
2023/12/06 09:35:44;;;;;;;716.55;663.00;;;1.90;99.90;;;;;;6298416;22;20019;-83
2023/12/06 09:38:12;;;;;;;719.28;665.85;;;2.30;99.90;;;;;;6273026;22;20098;-82
2023/12/06 09:40:38;;;;;;;704.17;651.72;;;1.90;99.90;;;;;;6299759;22;20015;-81
2023/12/06 09:43:03;;;;;;;779.20;718.97;;;2.10;99.90;;;;;;6297560;22;20015;-81
2023/12/06 09:45:30;;;;;;;747.90;691.55;;;1.90;99.90;;;;;;6299935;22;20019;-81
2023/12/06 09:47:56;;;;;;;761.70;704.60;;;2.40;99.90;;;;;;6299768;22;20023;-81
2023/12/06 09:50:25;;;;;;;761.75;704.42;;;1.90;99.90;;;;;;6299650;22;20015;-81
2023/12/06 09:52:52;;;;;;;808.35;745.63;;;2.50;99.90;;;;;;6299976;22;20023;-81
2023/12/06 09:55:23;;;;;;;753.42;696.38;;;2.10;99.90;;;;;;6299520;22;20018;-81
2023/12/06 09:57:51;;;;;;;799.28;738.20;;;2.00;99.90;;;;;;6271836;22;20019;-82
2023/12/06 10:00:17;;;;;;;796.42;734.92;;;2.20;99.90;;;;;;6274392;22;20443;-82
2023/12/06 10:02:48;;;;;;;802.75;740.78;;;2.00;99.90;;;;;;6273027;22;20026;-82
2023/12/06 10:05:14;;;;;;;730.95;676.58;;;2.50;99.90;;;;;;6273373;22;20023;-84
2023/12/06 10:07:40;;;;;;;809.38;747.70;;;2.10;99.90;;;;;;6274125;22;20046;-82
2023/12/06 10:10:19;;;;;;;808.25;746.78;;;2.10;99.90;;;;;;6273034;22;20030;-82
2023/12/06 10:12:52;;;;;;;748.97;692.42;;;2.10;99.90;;;;;;6272852;22;20016;-81
2023/12/06 10:15:19;;;;;;;740.75;685.05;;;2.20;99.90;;;;;;6274558;22;20462;-82
2023/12/06 10:17:45;;;;;;;781.45;723.47;;;2.20;99.90;;;;;;6246898;22;20015;-83
2023/12/06 10:20:13;;;;;;;757.45;700.20;;;2.30;99.90;;;;;;6249102;22;20351;-82
2023/12/06 10:22:39;;;;;;;763.35;704.55;;;2.70;99.90;;;;;;6273654;22;20027;-82
2023/12/06 10:25:06;;;;;;;671.80;622.25;;;2.20;99.90;;;;;;6272719;22;20034;-82
2023/12/06 10:27:32;;;;;;;712.08;658.90;;;2.10;99.90;;;;;;6274069;22;20019;-81
2023/12/06 10:29:59;;;;;;;747.42;691.35;;;2.10;99.90;;;;;;6273434;22;20023;-81
2023/12/06 10:32:26;;;;;;;670.95;621.63;;;2.10;99.90;;;;;;6246747;22;20443;-81
2023/12/06 10:34:54;;;;;;;716.38;663.92;;;2.10;99.90;;;;;;6273467;22;20021;-82
2023/12/06 10:37:21;;;;;;;700.03;648.03;;;2.30;99.90;;;;;;6248363;22;20054;-81
2023/12/06 10:39:49;;;;;;;722.35;668.45;;;2.20;99.90;;;;;;6272451;22;20403;-81
2023/12/06 10:42:19;;;;;;;690.88;640.15;;;2.40;99.90;;;;;;6273282;22;20027;-80
2023/12/06 10:44:45;;;;;;;692.40;641.00;;;2.20;99.90;;;;;;6272583;22;20022;-82
2023/12/06 10:47:12;;;;;;;687.42;637.10;;;2.40;99.90;;;;;;6300432;22;20019;-82
2023/12/06 10:49:40;;;;;;;702.95;650.95;;;2.30;99.90;;;;;;6301007;22;20424;-81
2023/12/06 10:52:08;;;;;;;634.40;587.05;;;2.30;99.90;;;;;;6272936;22;20019;-81
2023/12/06 10:54:34;;;;;;;691.83;640.20;;;2.30;99.90;;;;;;6273408;22;20019;-80
2023/12/06 10:57:03;;;;;;;654.65;606.55;;;2.80;99.90;;;;;;6294930;22;20022;-80
2023/12/06 10:59:31;;;;;;;638.10;591.33;;;2.30;99.90;;;;;;6297309;22;20072;-81
2023/12/06 11:01:57;;;;;;;630.55;583.42;;;2.30;99.90;;;;;;6301325;22;20332;-81
2023/12/06 11:04:28;;;;;;;683.65;633.78;;;2.30;99.90;;;;;;6303935;22;20008;-80
2023/12/06 11:06:58;;;;;;;614.22;569.70;;;2.30;99.90;;;;;;6302227;22;20084;-81
2023/12/06 11:09:54;;;;;;;658.10;609.80;;;2.30;99.90;;;;;;6301797;22;20499;-81
2023/12/06 11:12:29;;;;;;;597.40;554.38;;;2.40;99.90;;;;;;6300692;22;20015;-81
2023/12/06 11:14:57;;;;;;;639.55;593.15;;;2.40;99.90;;;;;;6300090;22;20019;-81
2023/12/06 11:17:38;;;;;;;650.40;601.70;;;2.40;99.90;;;;;;6303786;22;20019;-81
2023/12/06 11:20:05;;;;;;;595.72;553.38;;;2.50;99.90;;;;;;6300873;22;20447;-80
2023/12/06 11:22:30;;;;;;;600.92;558.53;;;2.50;99.90;;;;;;6303307;22;20011;-81
2023/12/06 11:24:56;;;;;;;630.42;584.47;;;2.50;99.90;;;;;;6302174;22;20439;-81
2023/12/06 11:27:22;;;;;;;608.08;564.58;;;2.60;99.90;;;;;;6300155;22;20832;-80
2023/12/06 11:29:54;;;;;;;607.90;564.40;;;2.80;99.90;;;;;;6303691;22;20110;-86
2023/12/06 11:32:19;;;;;;;608.47;565.15;;;2.60;99.90;;;;;;6301135;22;20027;-81
2023/12/06 11:34:55;;;;;;;583.08;541.80;;;2.60;99.90;;;;;;6299640;22;20598;-79
2023/12/06 11:37:22;;;;;;;626.28;580.97;;;2.70;99.90;;;;;;6301448;22;20023;-80
2023/12/06 11:40:07;;;;;;;620.83;576.33;;;2.90;99.90;;;;;;6299661;22;20022;-80
2023/12/06 11:42:37;;;;;;;592.90;550.25;;;3.00;99.90;;;;;;6273577;22;20023;-80
2023/12/06 11:45:05;;;;;;;594.22;552.55;;;3.20;99.90;;;;;;6302664;22;20120;-81
2023/12/06 11:47:35;;;;;;;577.38;535.90;;;2.60;99.90;;;;;;6300849;22;20051;-81
2023/12/06 11:50:00;;;;;;;610.83;566.80;;;2.60;99.90;;;;;;6274409;22;20023;-80
2023/12/06 11:52:26;;;;;;;630.08;584.90;;;2.80;99.90;;;;;;6302491;22;20374;-80
2023/12/06 11:54:54;;;;;;;637.28;590.50;;;2.70;99.90;;;;;;6301426;22;20019;-80
2023/12/06 11:57:19;;;;;;;617.03;572.60;;;2.60;99.90;;;;;;6272936;22;20072;-80
2023/12/06 11:59:47;;;;;;;573.78;533.10;;;2.70;99.90;;;;;;6300338;22;20489;-80
2023/12/06 12:02:13;;;;;;;586.55;544.97;;;3.00;99.90;;;;;;6300288;22;20049;-80
2023/12/06 12:04:39;;;;;;;617.85;573.35;;;2.60;99.90;;;;;;6274155;22;20019;-80
2023/12/06 12:07:04;;;;;;;649.05;602.55;;;2.80;99.90;;;;;;6275156;22;20034;-80